Change the Weather History Date:

Sunday, March 31, 2013

  Actual Average Record
Temperature  
Mean Temperature 66 °F -  
Max Temperature 75 °F 74 °F 98 °F (1974)
Min Temperature 58 °F 44 °F 28 °F (1972)
Cooling Degree Days 1    
Growing Degree Days 16 (Base 50)    
Moisture  
Dew Point 46 °F    
Average Humidity 48    
Maximum Humidity 76    
Minimum Humidity 24    
Precipitation  
Precipitation 0.00 in - - ()
Sea Level Pressure  
Sea Level Pressure 30.01 in    
Wind  
Wind Speed 13 mph (NE)    
Max Wind Speed 24 mph    
Max Gust Speed 33 mph    
Visibility 10 miles    
Events      
Averages and records for this station are not official NWS values.
T = Trace of Precipitation, MM = Missing Value Source: NWS Daily Summary

Daily Weather History Graph

Daily Weather History Graph

Search for Another Location

Airport or City:

Trip Planner

Search our weather history database for the weather conditions in past years. The results will help you decide how hot, cold, wet, or windy it might be!

Date:

Astronomy

Mar. 31, 2013 Rise Set
Actual Time 7:30 AM CDT 8:01 PM CDT
Civil Twilight 7:06 AM CDT 8:26 PM CDT
Nautical Twilight 6:37 AM CDT 8:55 PM CDT
Astronomical Twilight 6:07 AM CDT 9:24 PM CDT
Moon No Moon Rise 10:34 AM CDT
Length of Visible Light 13h 19m
Length of Day
12h 30m
Waning Gibbous, 77% of the Moon is Illuminated
Mar 31
Waning Gibbous
Apr 2
Last Quarter
Apr 10
New
Apr 18
First Quarter
Apr 25
Full

Hourly Weather History & Observations

Time (CDT) Temp. Dew Point Humidity Pressure Visibility Wind Dir Wind Speed Gust Speed Precip Events Conditions
12:15 AM 68.9 °F 44.6 °F 42% 29.92 in 10.0 mi SSE 11.5 mph - N/A   Clear
12:35 AM 69.1 °F 50.2 °F 51% 29.92 in 10.0 mi SSE 11.5 mph - N/A   Clear
12:55 AM 68.9 °F 51.8 °F 54% 29.91 in 10.0 mi SSE 11.5 mph - N/A   Clear
1:15 AM 68.2 °F 52.2 °F 56% 29.92 in 10.0 mi SSE 13.8 mph - N/A   Clear
1:35 AM 68.2 °F 52.7 °F 58% 29.92 in 10.0 mi SSE 12.7 mph - N/A   Clear
1:55 AM 67.3 °F 52.7 °F 59% 29.92 in 10.0 mi South 11.5 mph - N/A   Clear
2:15 AM 67.1 °F 52.7 °F 60% 29.91 in 10.0 mi SSE 11.5 mph - N/A   Clear
2:35 AM 68.0 °F 52.2 °F 57% 29.91 in 10.0 mi South 12.7 mph - N/A   Clear
2:55 AM 68.5 °F 52.2 °F 56% 29.91 in 10.0 mi South 16.1 mph - N/A   Clear
3:15 AM 70.0 °F 51.8 °F 52% 29.91 in 10.0 mi SSW 16.1 mph - N/A   Clear
3:35 AM 69.3 °F 51.8 °F 54% 29.91 in 10.0 mi SSW 15.0 mph - N/A   Clear
3:55 AM 69.8 °F 49.5 °F 48% 29.91 in 10.0 mi SSW 15.0 mph - N/A   Clear
4:15 AM 69.8 °F 46.4 °F 43% 29.91 in 10.0 mi SW 11.5 mph - N/A   Clear
4:35 AM 71.1 °F 37.8 °F 30% 29.91 in 10.0 mi SW 12.7 mph - N/A   Clear
4:55 AM 71.6 °F 34.9 °F 26% 29.90 in 10.0 mi WSW 11.5 mph 20.7 mph N/A   Clear
5:15 AM 73.0 °F 33.8 °F 24% 29.90 in 10.0 mi SW 12.7 mph - N/A   Clear
5:35 AM 71.1 °F 35.6 °F 27% 29.90 in 10.0 mi SSW 9.2 mph - N/A   Clear
5:55 AM 69.3 °F 39.9 °F 34% 29.90 in 10.0 mi South 12.7 mph - N/A   Clear
6:15 AM 67.1 °F 46.6 °F 48% 29.91 in 10.0 mi SSW 10.4 mph - N/A   Clear
6:35 AM 68.2 °F 46.2 °F 45% 29.91 in 10.0 mi SSW 12.7 mph - N/A   Clear
6:55 AM 68.0 °F 46.2 °F 46% 29.92 in 10.0 mi SSW 13.8 mph - N/A   Clear
7:15 AM 67.3 °F 46.0 °F 46% 29.97 in 10.0 mi NNW 24.2 mph 33.4 mph N/A   Clear
7:35 AM 63.0 °F 55.2 °F 76% 30.00 in 10.0 mi North 20.7 mph 29.9 mph N/A   Scattered Clouds
7:55 AM 61.0 °F 51.6 °F 71% 30.04 in 10.0 mi NNE 20.7 mph 31.1 mph N/A   Mostly Cloudy
8:15 AM 59.9 °F 50.0 °F 70% 30.05 in 10.0 mi North 16.1 mph 31.1 mph N/A   Mostly Cloudy
8:35 AM 58.6 °F 49.3 °F 71% 30.07 in 10.0 mi North 21.9 mph 31.1 mph N/A   Mostly Cloudy
8:55 AM 58.1 °F 48.6 °F 71% 30.08 in 10.0 mi NNE 20.7 mph 31.1 mph N/A   Mostly Cloudy
9:15 AM 58.6 °F 48.2 °F 68% 30.09 in 10.0 mi NNE 18.4 mph 31.1 mph N/A   Scattered Clouds
9:35 AM 59.9 °F 48.4 °F 66% 30.09 in 10.0 mi NE 21.9 mph 31.1 mph N/A   Clear
9:55 AM 59.9 °F 48.2 °F 65% 30.09 in 10.0 mi NNE 19.6 mph 29.9 mph N/A   Clear
10:15 AM 61.0 °F 48.2 °F 63% 30.09 in 10.0 mi NE 20.7 mph 28.8 mph N/A   Clear
10:35 AM 62.1 °F 47.7 °F 59% 30.10 in 10.0 mi NE 17.3 mph 28.8 mph N/A   Clear
10:55 AM 63.7 °F 47.5 °F 56% 30.10 in 10.0 mi NE 19.6 mph 25.3 mph N/A   Clear
11:15 AM 64.6 °F 47.3 °F 53% 30.09 in 10.0 mi NE 20.7 mph - N/A   Clear
11:35 AM 66.2 °F 46.6 °F 49% 30.09 in 10.0 mi NE 20.7 mph 25.3 mph N/A   Clear
11:55 AM 67.1 °F 46.4 °F 47% 30.08 in 10.0 mi NE 17.3 mph 23.0 mph N/A   Clear
12:15 PM 68.7 °F 45.9 °F 44% 30.08 in 10.0 mi NE 21.9 mph 26.5 mph N/A   Clear
12:35 PM 69.1 °F 45.9 °F 43% 30.09 in 10.0 mi NE 18.4 mph 25.3 mph N/A   Clear
12:55 PM 70.3 °F 45.9 °F 41% 30.09 in 10.0 mi NE 15.0 mph 21.9 mph N/A   Clear
1:15 PM 71.2 °F 45.7 °F 40% 30.08 in 10.0 mi NE 15.0 mph 23.0 mph N/A   Clear
1:35 PM 72.1 °F 45.9 °F 39% 30.08 in 10.0 mi NE 13.8 mph 21.9 mph N/A   Clear
1:55 PM 72.5 °F 45.1 °F 37% 30.07 in 10.0 mi NE 13.8 mph 19.6 mph N/A   Clear
2:15 PM 72.9 °F 44.8 °F 37% 30.05 in 10.0 mi NNE 12.7 mph 19.6 mph N/A   Clear
2:35 PM 73.8 °F 44.8 °F 35% 30.05 in 10.0 mi NNE 12.7 mph 18.4 mph N/A   Clear
2:55 PM 74.5 °F 44.2 °F 34% 30.05 in 10.0 mi NE 15.0 mph 21.9 mph N/A   Clear
3:15 PM 73.9 °F 43.5 °F 34% 30.04 in 10.0 mi NNE 12.7 mph 18.4 mph N/A   Clear
3:35 PM 74.8 °F 43.9 °F 33% 30.02 in 10.0 mi NNE 9.2 mph 17.3 mph N/A   Clear
3:55 PM 74.3 °F 43.7 °F 33% 30.02 in 10.0 mi NE 12.7 mph 21.9 mph N/A   Clear
4:15 PM 74.7 °F 43.7 °F 33% 30.02 in 10.0 mi North 13.8 mph 18.4 mph N/A   Clear
4:35 PM 74.3 °F 43.7 °F 33% 30.01 in 10.0 mi North 11.5 mph 19.6 mph N/A   Clear
4:55 PM 74.1 °F 43.9 °F 34% 30.01 in 10.0 mi NE 13.8 mph 20.7 mph N/A   Clear
5:15 PM 74.7 °F 43.7 °F 33% 30.01 in 10.0 mi NNE 9.2 mph 17.3 mph N/A   Clear
5:35 PM 73.8 °F 43.7 °F 34% 30.01 in 10.0 mi North 8.1 mph - N/A   Clear
5:55 PM 73.6 °F 43.9 °F 34% 30.01 in 10.0 mi NE 10.4 mph - N/A   Clear
6:15 PM 73.0 °F 43.9 °F 35% 30.00 in 10.0 mi North 8.1 mph - N/A   Clear
6:35 PM 72.7 °F 44.4 °F 36% 30.01 in 10.0 mi NE 9.2 mph - N/A   Clear
6:55 PM 72.3 °F 44.8 °F 37% 30.01 in 10.0 mi NE 11.5 mph - N/A   Clear
7:15 PM 71.4 °F 44.6 °F 38% 30.01 in 10.0 mi NE 8.1 mph - N/A   Clear
7:35 PM 70.3 °F 44.6 °F 40% 30.02 in 10.0 mi NE 5.8 mph - N/A   Clear
8:15 PM 66.9 °F 45.3 °F 46% 30.03 in 10.0 mi NE 5.8 mph - N/A   Clear
8:35 PM 66.2 °F 45.1 °F 47% 30.03 in 10.0 mi NNE 5.8 mph - N/A   Clear
8:55 PM 65.3 °F 45.5 °F 49% 30.04 in 10.0 mi NE 5.8 mph - N/A   Clear
9:15 PM 64.4 °F 45.5 °F 50% 30.05 in 10.0 mi NE 5.8 mph - N/A   Clear
9:35 PM 63.7 °F 45.5 °F 52% 30.05 in 10.0 mi NNE 6.9 mph - N/A   Clear
10:15 PM 61.7 °F 45.7 °F 56% 30.06 in 10.0 mi NE 6.9 mph - N/A   Clear
10:35 PM 61.3 °F 45.7 °F 56% 30.06 in 10.0 mi NE 6.9 mph - N/A   Clear
10:55 PM 60.8 °F 45.7 °F 57% 30.07 in 10.0 mi NE 5.8 mph - N/A   Clear
11:15 PM 60.1 °F 45.9 °F 59% 30.07 in 10.0 mi ENE 5.8 mph - N/A   Clear
11:35 PM 60.1 °F 45.5 °F 59% 30.07 in 10.0 mi ENE 5.8 mph - N/A   Clear
11:55 PM 59.4 °F 45.7 °F 61% 30.07 in 10.0 mi ENE 6.9 mph - N/A   Clear